地図

経路データ

SID SEASON NUMBER BASIN SUBBASIN NAME ISO_TIME NATURE LAT LON WMO_WIND WMO_PRES WMO_AGENCY TRACK_TYPE DIST2LAND LANDFALL IFLAG USA_AGENCY USA_ATCF_ID USA_LAT USA_LON USA_RECORD USA_STATUS USA_WIND USA_PRES USA_SSHS USA_R34_NE USA_R34_SE USA_R34_SW USA_R34_NW USA_R50_NE USA_R50_SE USA_R50_SW USA_R50_NW USA_R64_NE USA_R64_SE USA_R64_SW USA_R64_NW USA_POCI USA_ROCI USA_RMW USA_EYE TOKYO_LAT TOKYO_LON TOKYO_GRADE TOKYO_WIND TOKYO_PRES TOKYO_R50_DIR TOKYO_R50_LONG TOKYO_R50_SHORT TOKYO_R30_DIR TOKYO_R30_LONG TOKYO_R30_SHORT TOKYO_LAND CMA_LAT CMA_LON CMA_CAT CMA_WIND CMA_PRES HKO_LAT HKO_LON HKO_CAT HKO_WIND HKO_PRES NEWDELHI_LAT NEWDELHI_LON NEWDELHI_GRADE NEWDELHI_WIND NEWDELHI_PRES NEWDELHI_CI NEWDELHI_DP NEWDELHI_POCI REUNION_LAT REUNION_LON REUNION_TYPE REUNION_WIND REUNION_PRES REUNION_TNUM REUNION_CI REUNION_RMW REUNION_R34_NE REUNION_R34_SE REUNION_R34_SW REUNION_R34_NW REUNION_R50_NE REUNION_R50_SE REUNION_R50_SW REUNION_R50_NW REUNION_R64_NE REUNION_R64_SE REUNION_R64_SW REUNION_R64_NW BOM_LAT BOM_LON BOM_TYPE BOM_WIND BOM_PRES BOM_TNUM BOM_CI BOM_RMW BOM_R34_NE BOM_R34_SE BOM_R34_SW BOM_R34_NW BOM_R50_NE BOM_R50_SE BOM_R50_SW BOM_R50_NW BOM_R64_NE BOM_R64_SE BOM_R64_SW BOM_R64_NW BOM_ROCI BOM_POCI BOM_EYE BOM_POS_METHOD BOM_PRES_METHOD NADI_LAT NADI_LON NADI_CAT NADI_WIND NADI_PRES WELLINGTON_LAT WELLINGTON_LON WELLINGTON_WIND WELLINGTON_PRES DS824_LAT DS824_LON DS824_STAGE DS824_WIND DS824_PRES TD9636_LAT TD9636_LON TD9636_STAGE TD9636_WIND TD9636_PRES TD9635_LAT TD9635_LON TD9635_WIND TD9635_PRES TD9635_ROCI NEUMANN_LAT NEUMANN_LON NEUMANN_CLASS NEUMANN_WIND NEUMANN_PRES MLC_LAT MLC_LON MLC_CLASS MLC_WIND MLC_PRES USA_GUST BOM_GUST BOM_GUST_PER REUNION_GUST REUNION_GUST_PER USA_SEAHGT USA_SEARAD_NE USA_SEARAD_SE USA_SEARAD_SW USA_SEARAD_NW STORM_SPEED STORM_DIR
1917248N18087 1917 40 NI BB NOT_NAMED 1917-09-05 00:00:00 TS 17.9000 87.0000 main 242 228 _________O____ -1 17.9000 87.0000 TC 30 2 317
1917248N18087 1917 40 NI BB NOT_NAMED 1917-09-05 03:00:00 TS 17.9583 86.9417 main 228 214 _________PO___ -1 17.9875 86.9125 TC 30 17.9000 87.0000 1 2 316
1917248N18087 1917 40 NI BB NOT_NAMED 1917-09-05 06:00:00 TS 18.0707 86.8301 main 214 200 _________OP___ -1 18.1000 86.8000 TC 30 18.0266 86.8751 1 3 316
1917248N18087 1917 40 NI BB NOT_NAMED 1917-09-05 09:00:00 TS 18.2083 86.6930 main 200 186 _________PP___ -1 18.2500 86.6500 TC 30 18.1526 86.7502 1 4 317
1917248N18087 1917 40 NI BB NOT_NAMED 1917-09-05 12:00:00 TS 18.3386 86.5625 main 186 172 _________OP___ -1 18.4000 86.5000 TC 30 18.2772 86.6251 1 3 316
1917248N18087 1917 40 NI BB NOT_NAMED 1917-09-05 15:00:00 TS 18.4500 86.4500 main 168 144 _________PO___ -1 18.5000 86.3999 TC 30 18.4000 86.5000 1 3 316
1917248N18087 1917 40 NI BB NOT_NAMED 1917-09-05 18:00:00 TS 18.5605 86.3375 main 144 130 _________OP___ -1 18.6000 86.3000 TC 30 18.5209 86.3749 1 3 316
1917248N18087 1917 40 NI BB NOT_NAMED 1917-09-05 21:00:00 TS 18.6925 86.2037 main 130 115 _________PP___ -1 18.7425 86.1575 TC 30 18.6425 86.2499 1 4 316
1917248N18087 1917 40 NI BB NOT_NAMED 1917-09-06 00:00:00 TS 18.8339 86.0625 main 115 85 _________OP___ -1 18.9000 86.0000 TC 30 18.7678 86.1249 1 4 316
1917248N18087 1917 40 NI BB NOT_NAMED 1917-09-06 03:00:00 TS 18.9750 85.9212 main 85 69 _________PO___ -1 19.0500 85.8425 TC 30 18.9000 86.0000 1 4 318
1917248N18087 1917 40 NI BB NOT_NAMED 1917-09-06 06:00:00 TS 19.1255 85.7875 main 69 45 _________OP___ -1 19.2000 85.7000 TC 30 19.0509 85.8750 1 4 322
1917248N18087 1917 40 NI BB NOT_NAMED 1917-09-06 09:00:00 TS 19.2825 85.6712 main 45 30 _________PP___ -1 19.3575 85.5925 TC 30 19.2075 85.7500 1 4 325
1917248N18087 1917 40 NI BB NOT_NAMED 1917-09-06 12:00:00 TS 19.4301 85.5625 main 30 15 _________OP___ -1 19.5000 85.5000 TC 30 19.3603 85.6250 1 3 323
1917248N18087 1917 40 NI BB NOT_NAMED 1917-09-06 15:00:00 TS 19.5537 85.4537 main 10 0 _________PO___ -1 19.6075 85.4075 TC 30 19.5000 85.5000 1 3 318
1917248N18087 1917 40 NI BB NOT_NAMED 1917-09-06 18:00:00 TS 19.6325 85.3714 main 0 0 _________OP___ -1 19.7000 85.3000 TC 30 19.5649 85.4428 1 2 312
1917248N18087 1917 40 NI BB NOT_NAMED 1917-09-06 21:00:00 TS 19.6893 85.2962 main 0 0 _________PP___ -1 19.7547 85.2170 TC 30 19.6238 85.3753 1 3 307
1917248N18087 1917 40 NI BB NOT_NAMED 1917-09-07 00:00:00 TS 19.8104 85.1226 main 0 0 _________OP___ -1 19.9000 85.0000 TC 30 19.7208 85.2453 1 6 307
1917248N18087 1917 40 NI BB NOT_NAMED 1917-09-07 03:00:00 TS 20.0776 84.7552 main 0 0 _________PO___ -1 20.2553 84.5104 TC 30 19.9000 85.0000 1 11 308
1917248N18087 1917 40 NI BB NOT_NAMED 1917-09-07 06:00:00 TS 20.4613 84.2387 main 0 0 _________OP___ -1 20.7000 83.9000 TC 30 20.2226 84.5775 1 13 309
1917248N18087 1917 40 NI BB NOT_NAMED 1917-09-07 09:00:00 TS 20.8666 83.6970 main 0 0 _________PP___ -1 21.1072 83.3572 TC 30 20.6260 84.0367 1 13 308
1917248N18087 1917 40 NI BB NOT_NAMED 1917-09-07 12:00:00 TS 21.2831 83.1136 main 0 0 _________OP___ -1 21.5000 82.8000 TC 30 21.0662 83.4273 1 14 306
1917248N18087 1917 40 NI BB NOT_NAMED 1917-09-07 15:00:00 TS 21.6787 82.4999 main 0 0 _________PO___ -1 21.8574 82.1997 TC 30 21.5000 82.8000 1 14 303
1917248N18087 1917 40 NI BB NOT_NAMED 1917-09-07 18:00:00 TS 22.0303 81.8976 main 0 0 _________OP___ -1 22.2000 81.6000 TC 30 21.8606 82.1953 1 13 302
1917248N18087 1917 40 NI BB NOT_NAMED 1917-09-07 21:00:00 TS 22.3790 81.3010 main 0 0 _________PP___ -1 22.5500 81.0124 TC 30 22.2080 81.5896 1 13 303
1917248N18087 1917 40 NI BB NOT_NAMED 1917-09-08 00:00:00 TS 22.7257 80.7571 main 0 0 _________OP___ -1 22.9000 80.5000 TC 30 22.5514 81.0141 1 11 307
1917248N18087 1917 40 NI BB NOT_NAMED 1917-09-08 03:00:00 TS 23.0711 80.3098 main 0 0 _________PO___ -1 23.2422 80.1195 TC 30 22.9000 80.5000 1 10 313
1917248N18087 1917 40 NI BB NOT_NAMED 1917-09-08 06:00:00 TS 23.4334 79.9361 main 0 0 _________OP___ -1 23.6000 79.8000 TC 30 23.2668 80.0721 1 10 318
1917248N18087 1917 40 NI BB NOT_NAMED 1917-09-08 09:00:00 TS 23.8206 79.5756 main 0 0 _________PP___ -1 24.0000 79.4425 TC 30 23.6413 79.7087 1 10 321
1917248N18087 1917 40 NI BB NOT_NAMED 1917-09-08 12:00:00 TS 24.2101 79.2455 main 0 0 _________OP___ -1 24.4000 79.1000 TC 30 24.0202 79.3910 1 10 323
1917248N18087 1917 40 NI BB NOT_NAMED 1917-09-08 15:00:00 TS 24.5750 78.9424 main 0 0 _________PO___ -1 24.7499 78.7847 TC 30 24.4000 79.1000 1 9 324
1917248N18087 1917 40 NI BB NOT_NAMED 1917-09-08 18:00:00 TS 24.9158 78.6825 main 0 0 _________OP___ -1 25.1000 78.5000 TC 30 24.7777 78.8194 1 9 327
1917248N18087 1917 40 NI BB NOT_NAMED 1917-09-08 21:00:00 TS 25.2870 78.4236 main 0 0 _________PP___ -1 25.4876 78.2429 TC 30 25.1532 78.5440 1 9 328
1917248N18087 1917 40 NI BB NOT_NAMED 1917-09-09 00:00:00 TS 25.6514 78.1811 main 0 0 _________OP___ -1 25.9000 78.0000 TC 30 25.5272 78.2717 1 7 328
1917248N18087 1917 40 NI AS NOT_NAMED 1917-09-09 03:00:00 NR 25.9000 78.0000 main 0 __________O___ -1 TC 25.9000 78.0000 1 6 327

IBTrACS Databaseについて

本データベースは、米国NOAAが公開する1842年以降の世界の熱帯低気圧のベストトラックデータアーカイブInternational Best Track Archive for Climate Stewardship (IBTrACS)を、ウェブで閲覧しやすい形式に変換したものです。

最終更新日:2021-12-03